createdAt,value
2022-08-30T00:00:38.263Z,100804.16
2022-08-30T00:01:41.894Z,100805.00
2022-08-30T00:02:45.307Z,100809.44
2022-08-30T00:03:48.540Z,100811.11
2022-08-30T00:04:53.650Z,100808.05
2022-08-30T00:05:56.771Z,100807.22
2022-08-30T00:07:02.085Z,100806.39
2022-08-30T00:08:05.214Z,100805.27
2022-08-30T00:09:08.617Z,100805.27
2022-08-30T00:10:12.352Z,100803.33
2022-08-30T00:11:18.963Z,100806.11
2022-08-30T00:12:22.156Z,100805.80
2022-08-30T00:13:25.439Z,100804.69
2022-08-30T00:14:28.679Z,100804.69
2022-08-30T00:15:31.883Z,100805.52
2022-08-30T00:16:35.648Z,100806.36
2022-08-30T00:17:39.190Z,100801.63
2022-08-30T00:18:42.775Z,100806.91
2022-08-30T00:19:46.896Z,100808.86
2022-08-30T00:20:51.054Z,100807.74
2022-08-30T00:21:55.545Z,100807.74
2022-08-30T00:22:58.409Z,100810.00
2022-08-30T00:24:01.666Z,100812.50
2022-08-30T00:25:05.654Z,100813.64
2022-08-30T00:26:09.057Z,100812.25
2022-08-30T00:27:12.051Z,100818.08
2022-08-30T00:28:16.364Z,100806.45
2022-08-30T00:29:20.034Z,100810.61
2022-08-30T00:30:23.570Z,100811.19
2022-08-30T00:31:26.735Z,100808.97
2022-08-30T00:32:30.662Z,100811.46
2022-08-30T00:33:33.933Z,100806.46
2022-08-30T00:34:37.021Z,100814.27
2022-08-30T00:35:41.022Z,100810.40
2022-08-30T00:36:45.211Z,100800.68
2022-08-30T00:37:48.515Z,100804.84
2022-08-30T00:38:51.547Z,100806.25
2022-08-30T00:39:54.622Z,100806.25
2022-08-30T00:40:59.233Z,100813.48
2022-08-30T00:42:02.440Z,100813.48
2022-08-30T00:43:09.585Z,100806.51
2022-08-30T00:44:14.620Z,100806.51
2022-08-30T00:45:23.986Z,100807.06
2022-08-30T00:46:28.104Z,100813.45
2022-08-30T00:47:31.349Z,100803.19
2022-08-30T00:48:38.021Z,100813.17
2022-08-30T00:49:49.468Z,100804.84
2022-08-30T00:50:56.215Z,100810.40
2022-08-30T00:52:01.953Z,100810.40
2022-08-30T00:53:08.612Z,100810.09
2022-08-30T00:54:12.207Z,100800.38
2022-08-30T00:55:17.552Z,100813.42
2022-08-30T00:56:22.851Z,100808.44
2022-08-30T00:57:26.106Z,100815.93
2022-08-30T00:58:32.582Z,100807.05
2022-08-30T00:59:36.070Z,100815.38
2022-08-30T01:00:39.786Z,100806.21
2022-08-30T01:01:42.937Z,100812.59
2022-08-30T01:02:46.340Z,100816.20
2022-08-30T01:03:52.874Z,100816.20
2022-08-30T01:04:57.210Z,100809.55
2022-08-30T01:06:00.933Z,100811.21
2022-08-30T01:07:04.069Z,100812.02
2022-08-30T01:08:07.461Z,100812.02
2022-08-30T01:09:10.669Z,100810.37
2022-08-30T01:10:15.150Z,100813.98
2022-08-30T01:11:21.646Z,100811.48
2022-08-30T01:12:24.820Z,100811.48
2022-08-30T01:13:28.020Z,100811.21
2022-08-30T01:14:33.592Z,100808.71
2022-08-30T01:15:38.275Z,100811.77
2022-08-30T01:16:43.368Z,100813.17
2022-08-30T01:17:47.543Z,100807.90
2022-08-30T01:18:55.468Z,100815.39
2022-08-30T01:20:07.956Z,100821.22
2022-08-30T01:21:23.464Z,100817.92
2022-08-30T01:22:36.333Z,100816.52
2022-08-30T01:23:42.942Z,100811.83
2022-08-30T01:24:50.275Z,100827.09
2022-08-30T01:25:54.765Z,100826.56
2022-08-30T01:26:58.500Z,100814.89
2022-08-30T01:28:05.218Z,100820.72
2022-08-30T01:29:11.923Z,100819.08
2022-08-30T01:30:15.344Z,100821.86
2022-08-30T01:31:19.132Z,100822.97
2022-08-30T01:32:29.026Z,100827.10
2022-08-30T01:33:31.418Z,100822.39
2022-08-30T01:34:34.965Z,100827.94
2022-08-30T01:35:44.545Z,100823.49
2022-08-30T01:36:48.877Z,100823.80
2022-08-30T01:37:52.140Z,100825.73
2022-08-30T01:38:57.172Z,100824.91
2022-08-30T01:40:00.473Z,100822.13
2022-08-30T01:41:13.309Z,100826.58
2022-08-30T01:42:17.657Z,100824.63
2022-08-30T01:43:20.888Z,100824.33
2022-08-30T01:44:24.007Z,100824.33
2022-08-30T01:45:27.260Z,100826.27
2022-08-30T01:46:35.496Z,100821.86
2022-08-30T01:47:39.840Z,100824.91
2022-08-30T01:48:47.348Z,100825.18
2022-08-30T01:49:48.916Z,100821.84
2022-08-30T01:50:52.547Z,100817.44
2022-08-30T01:52:01.095Z,100824.36
2022-08-30T01:53:01.398Z,100825.77
2022-08-30T01:54:05.085Z,100824.11
2022-08-30T01:55:09.068Z,100827.98
2022-08-30T01:56:13.873Z,100818.27
2022-08-30T01:57:20.589Z,100822.45
2022-08-30T01:58:23.894Z,100823.83
2022-08-30T01:59:27.065Z,100823.30
2022-08-30T02:00:31.763Z,100827.45
2022-08-30T02:01:38.682Z,100821.34
2022-08-30T02:02:43.235Z,100825.25
2022-08-30T02:03:47.874Z,100826.09
2022-08-30T02:04:53.020Z,100821.34
2022-08-30T02:05:56.535Z,100828.55
2022-08-30T02:06:59.895Z,100829.12
2022-08-30T02:08:03.670Z,100827.18
2022-08-30T02:09:07.130Z,100826.08
2022-08-30T02:10:10.646Z,100829.38
2022-08-30T02:11:14.839Z,100830.77
2022-08-30T02:12:18.491Z,100837.99
2022-08-30T02:13:21.512Z,100830.20
2022-08-30T02:14:25.026Z,100833.53
2022-08-30T02:15:28.147Z,100836.03
2022-08-30T02:16:31.901Z,100837.41
2022-08-30T02:17:35.130Z,100831.58
2022-08-30T02:18:39.461Z,100840.47
2022-08-30T02:19:43.122Z,100836.86
2022-08-30T02:20:46.488Z,100837.69
2022-08-30T02:21:50.161Z,100836.86
2022-08-30T02:22:53.280Z,100834.36
2022-08-30T02:23:56.426Z,100827.41
2022-08-30T02:25:00.445Z,100835.73
2022-08-30T02:26:04.677Z,100837.98
2022-08-30T02:27:07.701Z,100840.46
2022-08-30T02:28:10.990Z,100840.77
2022-08-30T02:29:16.169Z,100845.75
2022-08-30T02:30:20.502Z,100842.41
2022-08-30T02:31:23.705Z,100847.96
2022-08-30T02:32:27.215Z,100842.41
2022-08-30T02:33:31.331Z,100844.92
2022-08-30T02:34:34.438Z,100847.96
2022-08-30T02:35:37.526Z,100849.38
2022-08-30T02:36:41.490Z,100844.09
2022-08-30T02:37:44.622Z,100845.50
2022-08-30T02:38:49.008Z,100847.71
2022-08-30T02:39:52.143Z,100835.78
2022-08-30T02:40:55.685Z,100843.00
2022-08-30T02:41:58.919Z,100848.27
2022-08-30T02:43:02.068Z,100846.87
2022-08-30T02:44:06.613Z,100853.25
2022-08-30T02:45:10.524Z,100845.48
2022-08-30T02:46:14.537Z,100846.02
2022-08-30T02:47:17.855Z,100851.30
2022-08-30T02:48:20.971Z,100849.09
2022-08-30T02:49:33.073Z,100851.03
2022-08-30T02:50:30.717Z,100851.86
2022-08-30T02:51:33.793Z,100850.20
2022-08-30T02:52:37.449Z,100850.47
2022-08-30T02:53:42.227Z,100850.73
2022-08-30T02:54:45.706Z,100856.28
2022-08-30T02:55:50.741Z,100846.33
2022-08-30T02:56:54.198Z,100850.20
2022-08-30T02:57:57.228Z,100850.48
2022-08-30T02:59:00.516Z,100854.36
2022-08-30T03:00:09.543Z,100850.22
2022-08-30T03:01:15.479Z,100849.65
2022-08-30T03:02:19.655Z,100854.63
2022-08-30T03:03:23.169Z,100854.94
2022-08-30T03:04:26.799Z,100855.20
2022-08-30T03:05:32.428Z,100850.77
2022-08-30T03:06:36.139Z,100858.25
2022-08-30T03:07:41.048Z,100853.53
2022-08-30T03:08:44.387Z,100856.31
2022-08-30T03:09:47.644Z,100850.22
2022-08-30T03:10:51.001Z,100856.87
2022-08-30T03:11:54.124Z,100859.06
2022-08-30T03:12:57.612Z,100861.30
2022-08-30T03:14:00.746Z,100866.28
2022-08-30T03:15:06.213Z,100859.35
2022-08-30T03:16:09.468Z,100869.88
2022-08-30T03:17:15.544Z,100864.61
2022-08-30T03:18:18.792Z,100867.92
2022-08-30T03:19:22.004Z,100866.55
2022-08-30T03:20:26.125Z,100864.30
2022-08-30T03:21:29.227Z,100867.64
2022-08-30T03:22:32.367Z,100869.03
2022-08-30T03:23:35.766Z,100864.84
2022-08-30T03:24:38.935Z,100867.35
2022-08-30T03:25:42.065Z,100870.66
2022-08-30T03:26:46.776Z,100868.44
2022-08-30T03:27:50.546Z,100870.95
2022-08-30T03:28:53.773Z,100872.61
2022-08-30T03:29:57.029Z,100872.61
2022-08-30T03:31:00.633Z,100868.70
2022-08-30T03:32:04.037Z,100873.14
2022-08-30T03:33:07.208Z,100873.98
2022-08-30T03:34:10.495Z,100869.26
2022-08-30T03:35:14.473Z,100869.82
2022-08-30T03:36:19.622Z,100873.12
2022-08-30T03:37:27.259Z,100873.96
2022-08-30T03:38:27.696Z,100873.12
2022-08-30T03:39:31.369Z,100876.47
2022-08-30T03:40:36.696Z,100874.52
2022-08-30T03:41:41.276Z,100871.47
2022-08-30T03:42:45.096Z,100871.47
2022-08-30T03:43:48.186Z,100875.88
2022-08-30T03:44:51.381Z,100872.27
2022-08-30T03:45:54.544Z,100877.55
2022-08-30T03:46:57.654Z,100872.84
2022-08-30T03:48:02.055Z,100873.67
2022-08-30T03:49:08.225Z,100871.45
2022-08-30T03:50:14.211Z,100871.14
2022-08-30T03:51:17.817Z,100871.70
2022-08-30T03:52:20.941Z,100870.33
2022-08-30T03:53:25.810Z,100867.00
2022-08-30T03:54:30.928Z,100860.34
2022-08-30T03:55:34.159Z,100869.50
2022-08-30T03:56:37.719Z,100871.97
2022-08-30T03:57:43.546Z,100867.25
2022-08-30T03:58:46.806Z,100860.59
2022-08-30T03:59:49.910Z,100869.75
2022-08-30T04:00:53.365Z,100866.70
2022-08-30T04:01:58.401Z,100861.67
2022-08-30T04:03:01.566Z,100858.09
2022-08-30T04:04:04.795Z,100860.56
2022-08-30T04:05:09.791Z,100857.79
2022-08-30T04:06:13.656Z,100857.79
2022-08-30T04:07:18.701Z,100858.34
2022-08-30T04:08:22.866Z,100860.02
2022-08-30T04:09:26.154Z,100862.80
2022-08-30T04:10:29.957Z,100865.57
2022-08-30T04:11:33.495Z,100866.68
2022-08-30T04:12:38.712Z,100861.13
2022-08-30T04:13:43.210Z,100866.68
2022-08-30T04:14:46.300Z,100863.91
2022-08-30T04:15:50.033Z,100864.17
2022-08-30T04:16:53.424Z,100871.67
2022-08-30T04:17:56.812Z,100877.81
2022-08-30T04:19:00.021Z,100880.03
2022-08-30T04:20:03.878Z,100879.50
2022-08-30T04:21:09.485Z,100880.88
2022-08-30T04:22:12.389Z,100883.10
2022-08-30T04:23:16.117Z,100880.87
2022-08-30T04:24:19.488Z,100875.59
2022-08-30T04:25:22.794Z,100883.92
2022-08-30T04:26:29.234Z,100890.31
2022-08-30T04:27:31.892Z,100882.54
2022-08-30T04:28:35.528Z,100878.66
2022-08-30T04:29:38.897Z,100882.83
2022-08-30T04:30:44.366Z,100880.30
2022-08-30T04:31:47.537Z,100883.64
2022-08-30T04:32:52.044Z,100872.78
2022-08-30T04:33:55.801Z,100888.06
2022-08-30T04:34:59.713Z,100882.23
2022-08-30T04:36:05.287Z,100889.98
2022-08-30T04:37:09.908Z,100886.66
2022-08-30T04:38:13.923Z,100886.07
2022-08-30T04:39:20.163Z,100886.63
2022-08-30T04:40:24.837Z,100890.24
2022-08-30T04:41:27.913Z,100888.30
2022-08-30T04:42:33.669Z,100890.77
2022-08-30T04:43:36.690Z,100888.83
2022-08-30T04:44:39.884Z,100890.77
2022-08-30T04:45:43.018Z,100889.94
2022-08-30T04:46:46.336Z,100891.60
2022-08-30T04:47:49.651Z,100890.49
2022-08-30T04:48:52.890Z,100887.98
2022-08-30T04:49:56.170Z,100887.44
2022-08-30T04:50:59.321Z,100887.13
2022-08-30T04:52:02.801Z,100897.69
2022-08-30T04:53:05.986Z,100884.33
2022-08-30T04:54:09.127Z,100891.27
2022-08-30T04:55:17.998Z,100884.33
2022-08-30T04:56:24.676Z,100885.69
2022-08-30T04:57:28.096Z,100889.86
2022-08-30T04:58:31.256Z,100888.16
2022-08-30T04:59:34.360Z,100883.95
2022-08-30T05:00:37.671Z,100889.23
2022-08-30T05:01:45.380Z,100891.98
2022-08-30T05:02:46.463Z,100891.98
2022-08-30T05:03:50.929Z,100891.43
2022-08-30T05:05:12.507Z,100886.95
2022-08-30T05:06:19.937Z,100886.95
2022-08-30T05:07:23.091Z,100889.97
2022-08-30T05:08:26.203Z,100889.70
2022-08-30T05:09:29.309Z,100887.74
2022-08-30T05:10:33.658Z,100887.74
2022-08-30T05:11:37.647Z,100891.08
2022-08-30T05:12:42.739Z,100885.77
2022-08-30T05:13:46.238Z,100885.48
2022-08-30T05:14:49.939Z,100874.88
2022-08-30T05:15:54.192Z,100881.00
2022-08-30T05:16:57.489Z,100875.16
2022-08-30T05:18:00.579Z,100886.80
2022-08-30T05:19:03.753Z,100886.80
2022-08-30T05:20:09.467Z,100880.95
2022-08-30T05:21:15.868Z,100877.06
2022-08-30T05:22:19.175Z,100881.52
2022-08-30T05:23:22.290Z,100878.41
2022-08-30T05:24:25.671Z,100878.41
2022-08-30T05:25:32.069Z,100882.86
2022-08-30T05:26:38.112Z,100887.31
2022-08-30T05:27:41.281Z,100881.75
2022-08-30T05:28:44.932Z,100877.86
2022-08-30T05:29:49.273Z,100887.86
2022-08-30T05:30:52.515Z,100883.97
2022-08-30T05:31:55.699Z,100879.20
2022-08-30T05:32:58.946Z,100881.70
2022-08-30T05:34:03.180Z,100878.36
2022-08-30T05:35:07.571Z,100876.94
2022-08-30T05:36:12.403Z,100881.10
2022-08-30T05:37:15.649Z,100872.44
2022-08-30T05:38:18.833Z,100872.99
2022-08-30T05:39:21.980Z,100868.81
2022-08-30T05:40:26.605Z,100872.11
2022-08-30T05:41:32.339Z,100876.28
2022-08-30T05:42:36.440Z,100867.34
2022-08-30T05:43:39.940Z,100870.67
2022-08-30T05:44:44.359Z,100868.13
2022-08-30T05:45:47.569Z,100872.28
2022-08-30T05:46:50.799Z,100867.23
2022-08-30T05:47:53.873Z,100875.85
2022-08-30T05:48:57.105Z,100869.69
2022-08-30T05:50:00.319Z,100877.47
2022-08-30T05:51:06.956Z,100873.53
2022-08-30T05:52:10.118Z,100877.73
2022-08-30T05:53:13.233Z,100871.88
2022-08-30T05:54:17.178Z,100877.13
2022-08-30T05:55:20.371Z,100883.25
2022-08-30T05:56:26.568Z,100881.84
2022-08-30T05:57:33.405Z,100879.58
2022-08-30T05:58:39.793Z,100879.00
2022-08-30T05:59:43.313Z,100880.36
2022-08-30T06:00:47.135Z,100884.52
2022-08-30T06:01:50.534Z,100880.30
2022-08-30T06:02:54.305Z,100878.89
2022-08-30T06:04:03.706Z,100888.59
2022-08-30T06:05:05.508Z,100882.45
2022-08-30T06:06:09.514Z,100883.80
2022-08-30T06:07:14.925Z,100881.27
2022-08-30T06:08:18.333Z,100886.56
2022-08-30T06:09:21.711Z,100887.91
2022-08-30T06:10:25.285Z,100879.27
2022-08-30T06:11:28.427Z,100880.32
2022-08-30T06:12:31.708Z,100882.82
2022-08-30T06:13:35.228Z,100887.78
2022-08-30T06:14:38.931Z,100881.92
2022-08-30T06:15:46.567Z,100889.99
2022-08-30T06:16:51.312Z,100879.37
2022-08-30T06:17:54.495Z,100881.86
2022-08-30T06:18:59.637Z,100879.62
2022-08-30T06:20:03.145Z,100884.04
2022-08-30T06:21:06.743Z,100877.34
2022-08-30T06:22:09.916Z,100887.08
2022-08-30T06:23:13.641Z,100882.86
2022-08-30T06:24:17.095Z,100875.04
2022-08-30T06:25:20.835Z,100881.98
2022-08-30T06:26:25.163Z,100886.98
2022-08-30T06:27:28.351Z,100885.57
2022-08-30T06:28:31.896Z,100878.55
2022-08-30T06:29:35.076Z,100886.62
2022-08-30T06:30:42.444Z,100874.03
2022-08-30T06:31:45.732Z,100869.84
2022-08-30T06:32:48.874Z,100873.97
2022-08-30T06:33:52.588Z,100879.79
2022-08-30T06:34:55.680Z,100879.17
2022-08-30T06:36:05.946Z,100882.51
2022-08-30T06:37:09.633Z,100881.06
2022-08-30T06:38:12.798Z,100885.22
2022-08-30T06:39:16.072Z,100882.14
2022-08-30T06:40:21.160Z,100877.91
2022-08-30T06:41:27.495Z,100877.33
2022-08-30T06:42:32.514Z,100877.55
2022-08-30T06:43:35.886Z,100882.83
2022-08-30T06:44:39.008Z,100879.72
2022-08-30T06:45:42.153Z,100880.25
2022-08-30T06:46:45.575Z,100872.43
2022-08-30T06:47:48.909Z,100877.39
2022-08-30T06:48:53.062Z,100881.23
2022-08-30T06:49:58.819Z,100882.59
2022-08-30T06:51:01.996Z,100883.14
2022-08-30T06:52:06.072Z,100881.69
2022-08-30T06:53:09.437Z,100878.31
2022-08-30T06:54:12.947Z,100883.27
2022-08-30T06:55:17.146Z,100888.27
2022-08-30T06:56:22.132Z,100880.14
2022-08-30T06:57:26.427Z,100873.10
2022-08-30T06:58:31.714Z,100871.69
2022-08-30T06:59:34.910Z,100872.72
2022-08-30T07:00:38.351Z,100876.88
2022-08-30T07:01:41.743Z,100875.42
2022-08-30T07:02:44.954Z,100876.50
2022-08-30T07:03:48.144Z,100875.88
2022-08-30T07:04:51.453Z,100875.25
2022-08-30T07:05:55.941Z,100871.88
2022-08-30T07:06:59.456Z,100874.88
2022-08-30T07:08:03.861Z,100872.31
2022-08-30T07:09:06.994Z,100877.27
2022-08-30T07:10:10.975Z,100872.73
2022-08-30T07:11:14.190Z,100872.13
2022-08-30T07:12:17.420Z,100867.05
2022-08-30T07:13:21.257Z,100870.91
2022-08-30T07:14:24.499Z,100870.28
2022-08-30T07:15:27.626Z,100864.10
2022-08-30T07:16:33.849Z,100863.17
2022-08-30T07:17:55.069Z,100864.51
2022-08-30T07:18:59.904Z,100866.73
2022-08-30T07:20:04.938Z,100861.34
2022-08-30T07:21:11.638Z,100862.71
2022-08-30T07:22:14.860Z,100868.50
2022-08-30T07:23:18.649Z,100861.98
2022-08-30T07:24:21.845Z,100868.93
2022-08-30T07:25:25.080Z,100865.50
2022-08-30T07:26:35.493Z,100866.86
2022-08-30T07:27:39.365Z,100866.23
2022-08-30T07:28:44.695Z,100868.42
2022-08-30T07:29:49.356Z,100869.98
2022-08-30T07:30:53.042Z,100872.14
2022-08-30T07:31:56.185Z,100872.14
2022-08-30T07:32:59.451Z,100866.75
2022-08-30T07:34:04.457Z,100860.55
2022-08-30T07:35:08.414Z,100861.58
2022-08-30T07:36:12.904Z,100867.70
2022-08-30T07:37:18.059Z,100867.89
2022-08-30T07:38:20.942Z,100867.25
2022-08-30T07:39:23.965Z,100866.65
2022-08-30T07:40:28.210Z,100862.91
2022-08-30T07:41:35.175Z,100862.34
2022-08-30T07:42:40.221Z,100862.53
2022-08-30T07:43:43.502Z,100859.92
2022-08-30T07:44:47.217Z,100858.48
2022-08-30T07:45:50.364Z,100860.64
2022-08-30T07:46:53.769Z,100853.61
2022-08-30T07:47:57.201Z,100860.52
2022-08-30T07:49:00.809Z,100852.02
2022-08-30T07:50:07.536Z,100853.38
2022-08-30T07:51:16.152Z,100853.56
2022-08-30T07:52:19.660Z,100846.52
2022-08-30T07:53:22.921Z,100853.13
2022-08-30T07:54:26.225Z,100853.31
2022-08-30T07:55:29.369Z,100851.88
2022-08-30T07:56:32.463Z,100848.43
2022-08-30T07:57:35.558Z,100845.84
2022-08-30T07:58:39.163Z,100847.17
2022-08-30T07:59:42.688Z,100840.13
2022-08-30T08:00:45.888Z,100843.11
2022-08-30T08:01:49.217Z,100842.80
2022-08-30T08:02:52.509Z,100846.12
2022-08-30T08:03:55.754Z,100844.36
2022-08-30T08:04:59.387Z,100838.45
2022-08-30T08:06:04.131Z,100842.89
2022-08-30T08:07:07.204Z,100830.24
2022-08-30T08:08:12.420Z,100838.81
2022-08-30T08:09:15.744Z,100841.00
2022-08-30T08:10:19.493Z,100839.52
2022-08-30T08:11:28.352Z,100838.06
2022-08-30T08:12:30.771Z,100836.59
2022-08-30T08:13:36.643Z,100831.51
2022-08-30T08:14:40.814Z,100833.66
2022-08-30T08:15:44.176Z,100833.03
2022-08-30T08:16:48.084Z,100837.98
2022-08-30T08:17:51.379Z,100830.93
2022-08-30T08:18:54.699Z,100839.50
2022-08-30T08:19:57.936Z,100828.83
2022-08-30T08:21:01.543Z,100832.14
2022-08-30T08:22:19.885Z,100827.86
2022-08-30T08:23:09.937Z,100826.72
2022-08-30T08:24:13.262Z,100825.23
2022-08-30T08:25:16.439Z,100827.72
2022-08-30T08:26:20.402Z,100829.89
2022-08-30T08:27:24.198Z,100832.34
2022-08-30T08:28:27.299Z,100830.06
2022-08-30T08:29:30.599Z,100831.41
2022-08-30T08:30:36.696Z,100825.47
2022-08-30T08:31:40.904Z,100827.67
2022-08-30T08:32:44.270Z,100829.81
2022-08-30T08:33:47.748Z,100823.07
2022-08-30T08:34:50.987Z,100829.67
2022-08-30T08:35:54.280Z,100819.30
2022-08-30T08:36:58.282Z,100823.44
2022-08-30T08:38:01.812Z,100821.95
2022-08-30T08:39:07.233Z,100810.43
2022-08-30T08:40:14.988Z,100818.17
2022-08-30T08:41:25.058Z,100819.00
2022-08-30T08:42:56.127Z,100822.32
2022-08-30T08:43:59.508Z,100819.20
2022-08-30T08:45:11.523Z,100819.38
2022-08-30T08:46:18.216Z,100819.88
2022-08-30T08:47:25.258Z,100819.53
2022-08-30T08:48:59.607Z,100813.62
2022-08-30T08:49:54.116Z,100809.36
2022-08-30T08:51:15.717Z,100810.18
2022-08-30T08:52:49.786Z,100805.06
2022-08-30T08:53:59.502Z,100814.30
2022-08-30T08:55:09.520Z,100807.55
2022-08-30T08:56:15.977Z,100806.40
2022-08-30T08:57:22.660Z,100806.05
2022-08-30T08:58:30.609Z,100802.94
2022-08-30T08:59:33.824Z,100807.39
2022-08-30T09:00:39.001Z,100805.10
2022-08-30T09:01:42.355Z,100798.31
2022-08-30T09:03:00.557Z,100810.04
2022-08-30T09:04:07.381Z,100800.17
2022-08-30T09:05:14.196Z,100795.88
2022-08-30T09:06:33.863Z,100799.19
2022-08-30T09:07:40.674Z,100798.84
2022-08-30T09:08:43.829Z,100794.56
2022-08-30T09:09:47.357Z,100790.62
2022-08-30T09:11:05.133Z,100793.91
2022-08-30T09:12:10.761Z,100791.64
2022-08-30T09:13:14.086Z,100789.34
2022-08-30T09:14:21.300Z,100789.82
2022-08-30T09:15:27.812Z,100792.31
2022-08-30T09:16:54.002Z,100794.80
2022-08-30T09:18:04.082Z,100781.25
2022-08-30T09:19:07.486Z,100780.10
2022-08-30T09:20:12.237Z,100793.80
2022-08-30T09:21:18.953Z,100785.90
2022-08-30T09:22:37.427Z,100777.97
2022-08-30T09:23:50.233Z,100777.97
2022-08-30T09:24:57.053Z,100775.67
2022-08-30T09:26:06.585Z,100788.55
2022-08-30T09:27:18.855Z,100775.34
2022-08-30T09:28:27.141Z,100780.28
2022-08-30T09:29:30.782Z,100774.35
2022-08-30T09:30:34.509Z,100784.08
2022-08-30T09:31:52.932Z,100786.23
2022-08-30T09:32:58.667Z,100779.48
2022-08-30T09:34:10.595Z,100776.00
2022-08-30T09:36:30.957Z,100773.84
2022-08-30T09:37:37.785Z,100771.05
2022-08-30T09:38:40.912Z,100786.73
2022-08-30T09:39:45.844Z,100781.59
2022-08-30T09:40:52.058Z,100778.47
2022-08-30T09:42:14.232Z,100774.52
2022-08-30T09:43:20.916Z,100778.66
2022-08-30T09:44:30.101Z,100769.88
2022-08-30T09:45:39.717Z,100768.73
2022-08-30T09:46:49.521Z,100762.80
2022-08-30T09:47:53.751Z,100769.23
2022-08-30T09:48:58.261Z,100771.69
2022-08-30T09:50:09.703Z,100760.47
2022-08-30T09:51:16.490Z,100768.88
2022-08-30T09:52:44.475Z,100772.19
2022-08-30T09:54:17.480Z,100767.09
2022-08-30T09:55:28.444Z,100768.09
2022-08-30T09:56:39.663Z,100766.94
2022-08-30T09:58:10.582Z,100765.44
2022-08-30T09:59:42.885Z,100772.38
2022-08-30T10:01:06.252Z,100770.08
2022-08-30T10:02:28.464Z,100765.77
2022-08-30T10:03:53.599Z,100761.81
2022-08-30T10:05:09.327Z,100759.50
2022-08-30T10:06:17.155Z,100767.56
2022-08-30T10:07:29.757Z,100754.04
2022-08-30T10:08:36.321Z,100762.13
2022-08-30T10:09:48.834Z,100754.19
2022-08-30T10:11:03.403Z,100758.64
2022-08-30T10:12:27.915Z,100756.34
2022-08-30T10:13:43.616Z,100752.38
2022-08-30T10:14:57.697Z,100752.02
2022-08-30T10:16:10.357Z,100748.89
2022-08-30T10:17:51.798Z,100753.35
2022-08-30T10:19:06.308Z,100751.02
2022-08-30T10:20:25.363Z,100745.90
2022-08-30T10:21:44.184Z,100743.09
2022-08-30T10:22:57.617Z,100740.28
2022-08-30T10:24:11.645Z,100741.94
2022-08-30T10:25:37.016Z,100741.94
2022-08-30T10:26:49.812Z,100743.59
2022-08-30T10:28:03.097Z,100734.34
2022-08-30T10:29:12.952Z,100740.78
2022-08-30T10:30:17.540Z,100743.23
2022-08-30T10:31:32.674Z,100732.00
2022-08-30T10:32:48.167Z,100732.50
2022-08-30T10:33:54.646Z,100737.44
2022-08-30T10:35:07.509Z,100737.11
2022-08-30T10:36:13.961Z,100741.24
2022-08-30T10:37:26.720Z,100738.91
2022-08-30T10:38:38.851Z,100741.88
2022-08-30T10:39:45.581Z,100739.55
2022-08-30T10:41:10.350Z,100739.22
2022-08-30T10:42:20.844Z,100736.94
2022-08-30T10:43:38.132Z,100742.20
2022-08-30T10:44:47.703Z,100741.04
2022-08-30T10:45:53.574Z,100745.17
2022-08-30T10:47:18.576Z,100742.04
2022-08-30T10:48:27.106Z,100734.08
2022-08-30T10:49:33.813Z,100737.39
2022-08-30T10:50:46.585Z,100736.23
2022-08-30T10:52:00.775Z,100732.23
2022-08-30T10:53:25.147Z,100733.56
2022-08-30T10:54:43.985Z,100731.25
2022-08-30T10:56:08.070Z,100734.20
2022-08-30T10:57:11.309Z,100727.55
2022-08-30T10:58:16.055Z,100729.20
2022-08-30T10:59:20.502Z,100731.69
2022-08-30T11:00:29.693Z,100730.50
2022-08-30T11:01:53.048Z,100733.31
2022-08-30T11:03:19.588Z,100732.16
2022-08-30T11:05:00.713Z,100732.98
2022-08-30T11:06:22.788Z,100727.36
2022-08-30T11:07:54.943Z,100727.36
2022-08-30T11:09:15.210Z,100731.33
2022-08-30T11:10:38.529Z,100729.70
2022-08-30T11:11:54.484Z,100721.27
2022-08-30T11:13:01.318Z,100724.09
2022-08-30T11:14:06.663Z,100724.09
2022-08-30T11:15:19.146Z,100720.91
2022-08-30T11:16:44.310Z,100725.37
2022-08-30T11:18:00.248Z,100713.80
2022-08-30T11:19:05.931Z,100716.28
2022-08-30T11:20:31.092Z,100712.28
2022-08-30T11:21:38.921Z,100711.13
2022-08-30T11:22:43.965Z,100716.75
2022-08-30T11:24:12.282Z,100711.13
2022-08-30T11:25:18.579Z,100716.42
2022-08-30T11:26:49.476Z,100711.63
2022-08-30T11:27:56.903Z,100710.80
2022-08-30T11:29:04.313Z,100717.70
2022-08-30T11:30:28.284Z,100712.09
2022-08-30T11:31:37.536Z,100709.27
2022-08-30T11:33:02.441Z,100709.44
2022-08-30T11:34:07.841Z,100704.64
2022-08-30T11:35:11.231Z,100709.11
2022-08-30T11:36:37.541Z,100714.36
2022-08-30T11:37:44.404Z,100712.38
2022-08-30T11:38:51.325Z,100703.95
2022-08-30T11:39:57.992Z,100703.95
2022-08-30T11:41:09.784Z,100701.63
2022-08-30T11:42:32.496Z,100705.27
2022-08-30T11:43:39.555Z,100706.09
2022-08-30T11:44:42.699Z,100706.55
2022-08-30T11:45:50.166Z,100708.20
2022-08-30T11:46:58.090Z,100707.05
2022-08-30T11:48:05.165Z,100703.91
2022-08-30T11:49:14.599Z,100699.91
2022-08-30T11:50:28.354Z,100706.05
2022-08-30T11:52:08.377Z,100700.43
2022-08-30T11:53:01.365Z,100699.27
2022-08-30T11:54:24.784Z,100696.12
2022-08-30T11:55:49.630Z,100701.75
2022-08-30T11:56:56.550Z,100697.75
2022-08-30T11:58:18.819Z,100692.95
2022-08-30T11:59:46.588Z,100697.41
2022-08-30T12:00:54.065Z,100693.45
2022-08-30T12:01:57.921Z,100692.28
2022-08-30T12:03:05.489Z,100698.73
2022-08-30T12:04:15.612Z,100695.09
2022-08-30T12:05:40.527Z,100688.31
2022-08-30T12:06:49.884Z,100687.48
2022-08-30T12:08:02.067Z,100680.70
2022-08-30T12:09:09.370Z,100683.97
2022-08-30T12:10:16.929Z,100683.64
2022-08-30T12:11:23.649Z,100674.87
2022-08-30T12:12:33.433Z,100689.39
2022-08-30T12:13:46.250Z,100679.80
2022-08-30T12:14:53.933Z,100687.90
2022-08-30T12:16:00.369Z,100681.91
2022-08-30T12:17:41.940Z,100684.72
2022-08-30T12:18:56.671Z,100681.57
2022-08-30T12:20:00.320Z,100684.05
2022-08-30T12:21:23.353Z,100676.77
2022-08-30T12:22:28.376Z,100677.59
2022-08-30T12:23:44.914Z,100684.87
2022-08-30T12:24:49.432Z,100679.25
2022-08-30T12:26:13.480Z,100680.91
2022-08-30T12:27:32.718Z,100676.89
2022-08-30T12:28:35.901Z,100672.92
2022-08-30T12:29:43.203Z,100669.77
2022-08-30T12:30:46.954Z,100671.43
2022-08-30T12:32:03.352Z,100671.09
2022-08-30T12:33:11.540Z,100678.70
2022-08-30T12:34:27.379Z,100663.81
2022-08-30T12:35:31.360Z,100676.72
2022-08-30T12:36:41.071Z,100669.90
2022-08-30T12:37:46.096Z,100678.00
2022-08-30T12:38:51.061Z,100672.38
2022-08-30T12:40:09.954Z,100667.58
2022-08-30T12:41:16.762Z,100665.59
2022-08-30T12:42:23.461Z,100668.41
2022-08-30T12:43:38.775Z,100663.94